Terminal Aerodrome Forecast
Issued by NWS

Home | Current Version | Previous Version | Graphics & Text | Print | Product List | Glossary On
Versions: 1 2 3 4 5 6 7 8 9 10 11 12 13 14 15 16 17 18 19 20 21 22 23 24
000
FTUS43 KABR 061935 AAA
TAFMBG
TAF AMD
KMBG 061935Z 0620/0718 31024G36KT 3SM BLSN BKN019 OVC040
      TEMPO 0620/0622 1 1/2SM -SN BLSN
     FM062200 31023G35KT 3SM BLSN BKN025
     FM070000 31021G30KT P6SM BKN050
     FM070300 31019G28KT P6SM BKN025
     FM071500 31020G29KT P6SM BKN015=

USA.gov is the U.S. government's official web portal to all federal, state and local government web resources and services.